Time;durP1;ratioP1;P1;durP2;ratioP2;P2;SDS_P1;SDS_P2;PMS_P1;PMS_P2;Temp;Humidity;BMP_temperature;BMP_pressure;BME280_temperature;BME280_humidity;BME280_pressure;Samples;Min_cycle;Max_cycle;Signal;HPM_P1;HPM_P2
2023/05/01 00:01:18;;;;;;;9.93;6.87;;;3.70;99.90;;;;;;5031955;28;20467;-52
2023/05/01 00:03:45;;;;;;;7.97;6.87;;;3.60;99.90;;;;;;5030345;28;20472;-51
2023/05/01 00:06:11;;;;;;;11.70;6.93;;;3.70;99.90;;;;;;5033617;28;21053;-52
2023/05/01 00:08:39;;;;;;;11.23;7.37;;;3.70;99.90;;;;;;5032175;28;20556;-51
2023/05/01 00:11:08;;;;;;;10.00;8.27;;;3.80;99.90;;;;;;5032059;28;20500;-52
2023/05/01 00:13:35;;;;;;;11.03;7.17;;;3.80;99.90;;;;;;5031506;28;20523;-52
2023/05/01 00:16:02;;;;;;;10.80;7.10;;;3.80;99.90;;;;;;5017191;28;20479;-51
2023/05/01 00:18:30;;;;;;;9.93;7.43;;;3.80;99.90;;;;;;5030840;28;20455;-51
2023/05/01 00:20:56;;;;;;;11.20;8.10;;;3.80;99.90;;;;;;5033360;28;20458;-52
2023/05/01 00:23:23;;;;;;;10.13;7.20;;;3.80;99.90;;;;;;5035256;28;20492;-50
2023/05/01 00:25:51;;;;;;;9.63;6.63;;;3.70;99.90;;;;;;5032232;28;20466;-52
2023/05/01 00:28:18;;;;;;;10.40;6.73;;;3.70;99.90;;;;;;5033800;28;20871;-51
2023/05/01 00:30:45;;;;;;;8.50;7.40;;;3.70;99.90;;;;;;5033288;28;20460;-52
2023/05/01 00:33:12;;;;;;;15.43;6.93;;;3.70;99.90;;;;;;5034833;28;20549;-51
2023/05/01 00:35:40;;;;;;;13.30;7.50;;;3.70;99.90;;;;;;5038885;28;20562;-51
2023/05/01 00:38:06;;;;;;;9.23;6.90;;;3.70;99.90;;;;;;5030070;28;20500;-51
2023/05/01 00:40:41;;;;;;;16.13;8.40;;;3.80;99.90;;;;;;5034022;28;20456;-52
2023/05/01 00:43:08;;;;;;;8.07;7.27;;;3.80;99.90;;;;;;5036526;28;20489;-53
2023/05/01 00:45:35;;;;;;;10.70;7.80;;;3.80;99.90;;;;;;5032549;28;20515;-51
2023/05/01 00:48:02;;;;;;;14.33;7.80;;;3.80;99.90;;;;;;5031023;28;20535;-52
2023/05/01 00:50:29;;;;;;;11.40;6.80;;;3.80;99.90;;;;;;5033929;28;20449;-51
2023/05/01 00:52:56;;;;;;;12.03;7.00;;;3.80;99.90;;;;;;5031273;28;20477;-51
2023/05/01 00:55:23;;;;;;;13.63;7.80;;;3.80;99.90;;;;;;5032317;28;20534;-51
2023/05/01 00:57:50;;;;;;;19.67;7.20;;;3.80;99.90;;;;;;5031603;28;21047;-51
2023/05/01 01:00:18;;;;;;;13.37;8.30;;;3.80;99.90;;;;;;5023651;28;20464;-51
2023/05/01 01:02:46;;;;;;;12.27;7.67;;;3.80;99.90;;;;;;5030558;28;20895;-51
2023/05/01 01:05:12;;;;;;;11.83;7.20;;;3.80;99.90;;;;;;5030063;28;20524;-52
2023/05/01 01:07:49;;;;;;;9.90;7.60;;;3.70;99.90;;;;;;5036779;28;20881;-50
2023/05/01 01:10:21;;;;;;;12.07;7.90;;;3.70;99.90;;;;;;5025166;28;20457;-52
2023/05/01 01:12:54;;;;;;;10.00;7.83;;;3.60;99.90;;;;;;5026471;28;20457;-51
2023/05/01 01:15:28;;;;;;;10.47;7.30;;;3.60;99.90;;;;;;5029226;28;20889;-52
2023/05/01 01:18:03;;;;;;;9.03;7.00;;;3.60;99.90;;;;;;5032909;28;20552;-51
2023/05/01 01:20:37;;;;;;;10.33;7.73;;;3.50;99.90;;;;;;5031967;28;20466;-51
2023/05/01 01:23:46;;;;;;;11.73;7.50;;;3.50;99.90;;;;;;5033790;28;20472;-51
2023/05/01 01:26:24;;;;;;;10.27;7.20;;;3.50;99.90;;;;;;4987988;28;20482;-52
2023/05/01 01:29:16;;;;;;;8.17;6.30;;;3.40;99.90;;;;;;5029465;28;20464;-52
2023/05/01 01:31:57;;;;;;;8.50;6.47;;;3.40;99.90;;;;;;5027085;28;20461;-51
2023/05/01 01:34:27;;;;;;;7.73;5.80;;;3.30;99.90;;;;;;5028299;28;20484;-52
2023/05/01 01:37:02;;;;;;;11.63;6.80;;;3.30;99.90;;;;;;5031157;28;20481;-52
2023/05/01 01:39:45;;;;;;;11.27;6.90;;;3.30;99.90;;;;;;5031694;28;20469;-51
2023/05/01 01:42:17;;;;;;;8.37;6.30;;;3.10;99.90;;;;;;5025257;28;20518;-51
2023/05/01 01:44:50;;;;;;;8.13;6.27;;;3.10;99.90;;;;;;5029485;28;20489;-52
2023/05/01 01:47:19;;;;;;;8.17;6.17;;;3.10;99.90;;;;;;5034254;28;20469;-52
2023/05/01 01:49:52;;;;;;;10.00;6.33;;;3.10;99.90;;;;;;5026961;28;20902;-51
2023/05/01 01:52:21;;;;;;;9.97;6.53;;;3.00;99.90;;;;;;5024447;28;20496;-51
2023/05/01 01:54:51;;;;;;;11.30;6.60;;;3.00;99.90;;;;;;5028071;28;20955;-51
2023/05/01 01:57:21;;;;;;;11.20;6.10;;;3.00;99.90;;;;;;5031716;28;20498;-52
2023/05/01 01:59:50;;;;;;;10.17;6.20;;;2.90;99.90;;;;;;5030323;28;20453;-51
2023/05/01 02:02:18;;;;;;;11.23;6.97;;;2.90;99.90;;;;;;5029182;28;20996;-52
2023/05/01 02:04:47;;;;;;;7.57;5.70;;;2.80;99.90;;;;;;5027408;28;20496;-52
2023/05/01 02:07:16;;;;;;;8.40;6.10;;;2.80;99.90;;;;;;5028554;28;20457;-56
2023/05/01 02:09:44;;;;;;;8.37;6.50;;;2.90;99.90;;;;;;5028292;28;20516;-51
2023/05/01 02:12:11;;;;;;;7.47;6.30;;;2.80;99.90;;;;;;5029366;28;20485;-51
2023/05/01 02:14:39;;;;;;;6.37;5.53;;;2.70;99.90;;;;;;5031679;28;20993;-52
2023/05/01 02:17:06;;;;;;;10.20;6.53;;;2.70;99.90;;;;;;5021713;28;20499;-51
2023/05/01 02:19:34;;;;;;;7.30;6.70;;;2.60;99.90;;;;;;5030827;28;20462;-51
2023/05/01 02:22:04;;;;;;;6.20;5.70;;;2.60;99.90;;;;;;5029575;28;20480;-51
2023/05/01 02:24:32;;;;;;;6.50;5.63;;;2.60;99.90;;;;;;5023602;28;20950;-52
2023/05/01 02:27:05;;;;;;;7.60;5.83;;;2.60;99.90;;;;;;5027893;28;20459;-51
2023/05/01 02:29:32;;;;;;;6.50;5.80;;;2.50;99.90;;;;;;5029939;28;20475;-50
2023/05/01 02:32:00;;;;;;;9.20;6.00;;;2.50;99.90;;;;;;5027741;28;20510;-51
2023/05/01 02:34:26;;;;;;;7.23;5.10;;;2.60;99.90;;;;;;5029763;28;20536;-51
2023/05/01 02:36:53;;;;;;;6.47;5.83;;;2.50;99.90;;;;;;5027096;28;20513;-51
2023/05/01 02:39:21;;;;;;;9.77;6.00;;;2.50;99.90;;;;;;5026742;28;20814;-52
2023/05/01 02:41:49;;;;;;;6.73;5.83;;;2.50;99.90;;;;;;5026807;28;20515;-51
2023/05/01 02:44:16;;;;;;;7.20;5.40;;;2.50;99.90;;;;;;5027242;28;20462;-51
2023/05/01 02:46:45;;;;;;;9.53;6.10;;;2.50;99.90;;;;;;5028298;28;20465;-51
2023/05/01 02:49:13;;;;;;;6.13;5.13;;;2.50;99.90;;;;;;5030051;28;20523;-51
2023/05/01 02:51:40;;;;;;;8.33;5.60;;;2.40;99.90;;;;;;5029602;28;20516;-51
2023/05/01 02:54:08;;;;;;;6.57;5.33;;;2.40;99.90;;;;;;5028787;28;20544;-51
2023/05/01 02:56:36;;;;;;;10.80;5.77;;;2.40;99.90;;;;;;5029445;28;20484;-50
2023/05/01 02:59:02;;;;;;;8.17;5.90;;;2.50;99.90;;;;;;5027480;28;20938;-52
2023/05/01 03:01:29;;;;;;;6.90;6.20;;;2.50;99.90;;;;;;5036063;28;20508;-52
2023/05/01 03:03:55;;;;;;;8.97;6.10;;;2.40;99.90;;;;;;5034685;28;20466;-51
2023/05/01 03:06:22;;;;;;;9.53;5.20;;;2.40;99.90;;;;;;5067515;22;20570;-52
2023/05/01 03:08:49;;;;;;;6.60;5.70;;;2.50;99.90;;;;;;5064775;28;20831;-53
2023/05/01 03:11:15;;;;;;;11.00;5.60;;;2.40;99.90;;;;;;5061313;28;20553;-53
2023/05/01 03:13:43;;;;;;;10.80;5.93;;;2.40;99.90;;;;;;5058907;28;20842;-52
2023/05/01 03:16:10;;;;;;;8.67;5.70;;;2.40;99.90;;;;;;5055043;28;20480;-52
2023/05/01 03:18:36;;;;;;;7.67;5.50;;;2.50;99.90;;;;;;5059842;28;20493;-53
2023/05/01 03:21:03;;;;;;;7.40;6.00;;;2.50;99.90;;;;;;5064256;28;21031;-53
2023/05/01 03:23:30;;;;;;;10.60;5.83;;;2.50;99.90;;;;;;5059303;28;20486;-53
2023/05/01 03:25:58;;;;;;;8.60;5.77;;;2.40;99.90;;;;;;5057171;28;20534;-52
2023/05/01 03:28:24;;;;;;;10.00;5.70;;;2.50;99.90;;;;;;5057015;28;20961;-52
2023/05/01 03:30:52;;;;;;;10.03;5.60;;;2.40;99.90;;;;;;5058004;28;20516;-52
2023/05/01 03:33:19;;;;;;;10.10;6.00;;;2.40;99.90;;;;;;5061135;28;20501;-52
2023/05/01 03:35:46;;;;;;;8.93;5.70;;;2.40;99.90;;;;;;5054887;28;20544;-53
2023/05/01 03:38:12;;;;;;;7.17;5.57;;;2.40;99.90;;;;;;5058568;28;20487;-53
2023/05/01 03:40:39;;;;;;;5.83;4.90;;;2.40;99.90;;;;;;5060908;28;20465;-52
2023/05/01 03:43:06;;;;;;;7.77;5.47;;;2.40;99.90;;;;;;5057980;28;20495;-52
2023/05/01 03:45:33;;;;;;;8.20;5.03;;;2.40;99.90;;;;;;5059473;28;20950;-52
2023/05/01 03:48:01;;;;;;;6.93;5.60;;;2.40;99.90;;;;;;5058573;28;20840;-52
2023/05/01 03:50:27;;;;;;;7.60;5.53;;;2.40;99.90;;;;;;5056283;28;20465;-52
2023/05/01 03:52:54;;;;;;;8.77;5.70;;;2.40;99.90;;;;;;5060996;28;20495;-52
2023/05/01 03:55:20;;;;;;;6.93;5.27;;;2.40;99.90;;;;;;5059871;28;21250;-53
2023/05/01 03:57:47;;;;;;;14.87;5.80;;;2.40;99.90;;;;;;5058689;28;21011;-52
2023/05/01 04:00:14;;;;;;;10.67;5.67;;;2.50;99.90;;;;;;5060297;28;20468;-52
2023/05/01 04:02:41;;;;;;;9.35;5.50;;;2.50;99.90;;;;;;5055226;28;20494;-52
2023/05/01 04:05:09;;;;;;;8.03;5.87;;;2.50;99.90;;;;;;5071633;28;20209;-52
2023/05/01 04:07:36;;;;;;;9.63;6.37;;;2.60;99.90;;;;;;5075027;28;20568;-51
2023/05/01 04:10:03;;;;;;;6.87;5.80;;;2.70;99.90;;;;;;5067082;28;20842;-53
2023/05/01 04:12:30;;;;;;;12.27;6.20;;;2.80;99.90;;;;;;5068188;28;20456;-52
2023/05/01 04:14:56;;;;;;;9.63;5.70;;;2.80;99.90;;;;;;5072361;28;20460;-53
2023/05/01 04:17:24;;;;;;;11.83;5.70;;;2.90;99.90;;;;;;5064549;28;20486;-52
2023/05/01 04:19:50;;;;;;;6.07;5.50;;;3.00;99.90;;;;;;5053906;28;20812;-52
2023/05/01 04:22:18;;;;;;;9.00;6.03;;;3.20;99.90;;;;;;5056691;28;20461;-52
2023/05/01 04:24:45;;;;;;;7.17;5.33;;;3.20;99.90;;;;;;5059422;28;20905;-52
2023/05/01 04:27:12;;;;;;;9.80;6.30;;;3.30;99.90;;;;;;5067328;28;20483;-52
2023/05/01 04:29:38;;;;;;;9.00;5.87;;;3.40;99.90;;;;;;5053834;28;20444;-52
2023/05/01 04:32:05;;;;;;;7.00;5.03;;;3.60;99.90;;;;;;5058379;28;20463;-52
2023/05/01 04:34:32;;;;;;;10.63;5.30;;;3.70;99.90;;;;;;5054450;28;20474;-53
2023/05/01 04:36:58;;;;;;;11.00;5.60;;;3.90;99.90;;;;;;5055362;28;20520;-51
2023/05/01 04:39:26;;;;;;;10.43;5.40;;;3.90;99.90;;;;;;5062728;28;20471;-52
2023/05/01 04:41:53;;;;;;;9.63;6.40;;;4.10;99.90;;;;;;5055804;28;20543;-51
2023/05/01 04:44:19;;;;;;;9.73;4.70;;;4.30;99.90;;;;;;5053746;28;21360;-51
2023/05/01 04:46:46;;;;;;;11.63;5.97;;;4.40;99.90;;;;;;5058469;28;20541;-52
2023/05/01 04:49:13;;;;;;;9.20;6.90;;;4.60;99.90;;;;;;5062246;28;20830;-52
2023/05/01 04:51:40;;;;;;;7.70;5.90;;;4.70;99.90;;;;;;5056927;28;20529;-52
2023/05/01 04:54:06;;;;;;;11.50;5.97;;;4.90;99.90;;;;;;5058097;28;20464;-52
2023/05/01 04:56:34;;;;;;;9.10;6.70;;;5.00;36.30;;;;;;5063657;28;20482;-52
2023/05/01 04:59:01;;;;;;;12.43;7.57;;;5.20;54.20;;;;;;5051200;28;20480;-52
2023/05/01 05:01:27;;;;;;;7.77;6.30;;;5.40;56.90;;;;;;5061413;28;20869;-52
2023/05/01 05:03:54;;;;;;;10.70;6.87;;;5.60;83.00;;;;;;5054409;28;20964;-53
2023/05/01 05:06:21;;;;;;;11.77;5.90;;;5.70;89.10;;;;;;5057287;28;21104;-51
2023/05/01 05:08:50;;;;;;;8.30;6.33;;;5.90;99.90;;;;;;5058125;28;20459;-52
2023/05/01 05:11:17;;;;;;;12.63;6.10;;;6.00;99.90;;;;;;5052883;28;20502;-53
2023/05/01 05:13:45;;;;;;;9.43;6.27;;;6.10;99.90;;;;;;5058549;28;20486;-52
2023/05/01 05:16:12;;;;;;;9.93;5.93;;;6.20;99.90;;;;;;5059247;28;20487;-52
2023/05/01 05:18:38;;;;;;;10.67;5.60;;;6.30;99.90;;;;;;5055356;28;20496;-52
2023/05/01 05:21:06;;;;;;;10.57;7.33;;;6.40;99.90;;;;;;5057226;28;20501;-52
2023/05/01 05:23:33;;;;;;;12.07;7.00;;;6.60;99.90;;;;;;5051983;28;20457;-51
2023/05/01 05:26:00;;;;;;;10.00;6.90;;;6.70;99.90;;;;;;5052334;28;20589;-52
2023/05/01 05:28:27;;;;;;;7.57;5.80;;;6.80;99.90;;;;;;5058899;28;20451;-52
2023/05/01 05:30:55;;;;;;;8.53;5.97;;;6.90;99.90;;;;;;5056386;28;20464;-56
2023/05/01 05:33:23;;;;;;;9.17;5.23;;;7.00;99.90;;;;;;5048798;28;20503;-52
2023/05/01 05:35:50;;;;;;;12.10;6.00;;;7.10;99.90;;;;;;5056862;28;20520;-51
2023/05/01 05:38:17;;;;;;;13.00;6.40;;;7.20;99.90;;;;;;5057551;28;20484;-52
2023/05/01 05:40:43;;;;;;;7.77;5.57;;;7.30;99.90;;;;;;5060718;28;20444;-52
2023/05/01 05:43:10;;;;;;;8.50;5.37;;;7.30;99.90;;;;;;5060310;28;20484;-52
2023/05/01 05:45:37;;;;;;;8.50;5.47;;;7.40;99.90;;;;;;5056208;28;20477;-52
2023/05/01 05:48:05;;;;;;;9.03;5.93;;;7.50;20.90;;;;;;5053440;28;20532;-52
2023/05/01 05:50:32;;;;;;;8.40;5.43;;;7.50;28.70;;;;;;5066422;28;20463;-51
2023/05/01 05:52:59;;;;;;;11.80;5.77;;;7.60;33.60;;;;;;5069904;28;20455;-52
2023/05/01 05:55:26;;;;;;;7.80;5.20;;;7.50;33.50;;;;;;5059576;28;20538;-52
2023/05/01 05:57:53;;;;;;;12.20;6.40;;;7.50;29.20;;;;;;5057148;28;20493;-52
2023/05/01 06:00:20;;;;;;;9.27;5.70;;;7.60;99.90;;;;;;5052311;28;20460;-52
2023/05/01 06:02:47;;;;;;;6.83;5.23;;;7.70;24.90;;;;;;5058858;28;20472;-51
2023/05/01 06:05:14;;;;;;;10.90;6.60;;;7.80;32.40;;;;;;5052535;28;20465;-51
2023/05/01 06:07:42;;;;;;;10.63;6.67;;;8.00;22.30;;;;;;5055997;28;20461;-51
2023/05/01 06:10:10;;;;;;;16.90;11.97;;;8.20;48.70;;;;;;5060434;28;20469;-52
2023/05/01 06:12:37;;;;;;;15.10;11.53;;;8.40;54.60;;;;;;5053783;28;20458;-52
2023/05/01 06:15:05;;;;;;;11.97;8.07;;;8.50;72.50;;;;;;5053528;28;20464;-52
2023/05/01 06:17:31;;;;;;;7.33;5.67;;;8.50;67.50;;;;;;5056728;28;20512;-51
2023/05/01 06:19:58;;;;;;;8.07;6.10;;;8.60;67.90;;;;;;5052538;28;20461;-52
2023/05/01 06:22:26;;;;;;;8.33;4.97;;;8.70;82.10;;;;;;5053630;28;20523;-52
2023/05/01 06:24:52;;;;;;;6.60;5.30;;;8.90;89.50;;;;;;5056704;28;20460;-52
2023/05/01 06:27:19;;;;;;;10.90;5.63;;;9.10;98.40;;;;;;5059421;28;20534;-52
2023/05/01 06:29:46;;;;;;;8.63;6.10;;;9.30;99.90;;;;;;5056561;28;20460;-52
2023/05/01 06:32:12;;;;;;;14.23;5.83;;;9.50;99.90;;;;;;5057658;28;20459;-53
2023/05/01 06:34:39;;;;;;;8.33;5.67;;;9.60;99.90;;;;;;5055180;28;20460;-52
2023/05/01 06:37:06;;;;;;;8.57;5.43;;;9.90;99.90;;;;;;5051392;28;20897;-52
2023/05/01 06:39:34;;;;;;;9.10;5.20;;;10.10;99.90;;;;;;5051740;28;20511;-52
2023/05/01 06:42:02;;;;;;;8.93;5.47;;;10.30;99.90;;;;;;5052267;28;20488;-52
2023/05/01 06:44:28;;;;;;;9.90;5.27;;;10.50;99.90;;;;;;5046045;28;20470;-52
2023/05/01 06:46:55;;;;;;;6.90;4.40;;;10.90;99.90;;;;;;5057790;28;21271;-53
2023/05/01 06:49:22;;;;;;;7.00;5.40;;;11.00;99.90;;;;;;5052320;28;20441;-52
2023/05/01 06:51:49;;;;;;;9.00;5.10;;;11.30;99.90;;;;;;5052313;28;20523;-52
2023/05/01 06:54:15;;;;;;;10.37;6.00;;;11.40;99.90;;;;;;5044574;28;20545;-52
2023/05/01 06:56:43;;;;;;;9.10;5.30;;;11.30;99.90;;;;;;5049952;28;20479;-52
2023/05/01 06:59:10;;;;;;;11.27;5.50;;;11.60;99.90;;;;;;5044561;28;20904;-53
2023/05/01 07:01:37;;;;;;;6.13;4.50;;;11.80;99.90;;;;;;5044831;28;20465;-52
2023/05/01 07:04:04;;;;;;;6.23;4.50;;;11.80;99.90;;;;;;5050749;28;21028;-52
2023/05/01 07:06:31;;;;;;;8.77;5.47;;;12.30;99.90;;;;;;5054739;28;20498;-51
2023/05/01 07:08:57;;;;;;;7.23;4.50;;;12.80;99.90;;;;;;5046168;28;20465;-51
2023/05/01 07:11:25;;;;;;;6.60;4.60;;;12.60;99.90;;;;;;5047869;28;20453;-54
2023/05/01 07:13:54;;;;;;;5.60;4.17;;;12.70;99.90;;;;;;5049567;28;20461;-57
2023/05/01 07:16:21;;;;;;;7.47;4.97;;;12.70;99.90;;;;;;5050473;28;20477;-56
2023/05/01 07:18:47;;;;;;;9.43;4.40;;;12.70;99.90;;;;;;5049222;28;20509;-56
2023/05/01 07:21:14;;;;;;;9.63;5.67;;;13.10;99.90;;;;;;5051385;28;20461;-57
2023/05/01 07:23:41;;;;;;;7.20;4.93;;;13.50;99.90;;;;;;5058467;28;20460;-57
2023/05/01 07:26:08;;;;;;;7.90;4.40;;;13.40;99.90;;;;;;5063996;28;20490;-57
2023/05/01 07:28:34;;;;;;;10.13;4.97;;;13.30;99.90;;;;;;5054387;28;20465;-57
2023/05/01 07:31:02;;;;;;;7.90;4.83;;;13.00;99.90;;;;;;5058840;28;20460;-56
2023/05/01 07:33:29;;;;;;;8.60;4.50;;;13.00;99.90;;;;;;5059991;28;20468;-57
2023/05/01 07:35:56;;;;;;;9.57;4.57;;;13.00;99.90;;;;;;5060259;28;20489;-50
2023/05/01 07:38:23;;;;;;;10.57;4.57;;;13.20;99.90;;;;;;5066617;28;20476;-54
2023/05/01 07:40:52;;;;;;;5.13;4.20;;;13.00;99.90;;;;;;5059625;28;20469;-53
2023/05/01 07:43:19;;;;;;;12.10;5.00;;;13.00;99.90;;;;;;5057310;28;20530;-52
2023/05/01 07:45:55;;;;;;;11.13;5.07;;;13.00;99.90;;;;;;5055959;28;20522;-52
2023/05/01 07:48:23;;;;;;;9.23;4.90;;;13.10;99.90;;;;;;5059193;28;20914;-52
2023/05/01 07:50:49;;;;;;;6.37;4.13;;;13.00;99.90;;;;;;5059457;28;20517;-53
2023/05/01 07:53:16;;;;;;;5.93;4.53;;;13.00;99.90;;;;;;5047957;28;20469;-53
2023/05/01 07:55:43;;;;;;;10.23;4.63;;;13.20;99.90;;;;;;5055475;28;20865;-53
2023/05/01 07:58:09;;;;;;;7.87;5.27;;;13.40;99.90;;;;;;5052917;28;20476;-53
2023/05/01 08:00:36;;;;;;;9.37;4.60;;;13.70;99.90;;;;;;5055785;28;20454;-52
2023/05/01 08:03:03;;;;;;;9.33;3.87;;;13.80;99.90;;;;;;5051365;28;20470;-52
2023/05/01 08:05:31;;;;;;;24.10;4.57;;;13.90;99.90;;;;;;5055127;28;20485;-52
2023/05/01 08:07:58;;;;;;;5.10;4.60;;;13.80;99.90;;;;;;5064113;28;20603;-52
2023/05/01 08:10:24;;;;;;;12.30;4.83;;;13.80;99.90;;;;;;5052880;28;20464;-53
2023/05/01 08:12:51;;;;;;;4.57;4.17;;;14.00;99.90;;;;;;5053343;28;20494;-56
2023/05/01 08:15:18;;;;;;;10.10;4.33;;;14.20;99.90;;;;;;5053166;28;20882;-53
2023/05/01 08:17:45;;;;;;;7.07;3.70;;;14.20;99.90;;;;;;5054553;28;20468;-53
2023/05/01 08:20:13;;;;;;;7.70;4.20;;;14.30;99.90;;;;;;5045105;28;20459;-52
2023/05/01 08:22:42;;;;;;;6.03;4.10;;;14.60;99.90;;;;;;5053072;28;20438;-52
2023/05/01 08:25:08;;;;;;;5.97;3.70;;;14.60;99.90;;;;;;5054830;28;20464;-52
2023/05/01 08:27:35;;;;;;;8.20;4.10;;;14.90;99.90;;;;;;5054535;28;21140;-57
2023/05/01 08:30:01;;;;;;;9.97;4.40;;;14.80;99.90;;;;;;5056129;28;20471;-57
2023/05/01 08:32:28;;;;;;;8.50;3.40;;;14.80;99.90;;;;;;5058849;28;20461;-57
2023/05/01 08:34:55;;;;;;;9.43;3.80;;;15.10;99.90;;;;;;5052939;28;20446;-56
2023/05/01 08:37:21;;;;;;;10.80;3.87;;;15.50;99.90;;;;;;5054962;28;20496;-57
2023/05/01 08:39:49;;;;;;;11.77;4.03;;;15.60;99.90;;;;;;5055822;28;20484;-56
2023/05/01 08:42:16;;;;;;;5.63;3.53;;;15.90;99.90;;;;;;5063488;28;20446;-56
2023/05/01 08:44:43;;;;;;;12.37;4.20;;;15.80;99.90;;;;;;5056197;28;20495;-57
2023/05/01 08:47:12;;;;;;;8.33;4.07;;;16.00;99.90;;;;;;5051350;28;20484;-57
2023/05/01 08:49:41;;;;;;;7.20;3.53;;;16.20;99.90;;;;;;5051541;28;21203;-57
2023/05/01 08:52:08;;;;;;;7.20;3.77;;;16.30;99.90;;;;;;5052694;28;20461;-57
2023/05/01 08:54:37;;;;;;;9.67;3.13;;;16.00;99.90;;;;;;5048273;28;20447;-56
2023/05/01 08:57:08;;;;;;;7.93;3.77;;;16.00;99.90;;;;;;5052264;28;20488;-57
2023/05/01 08:59:36;;;;;;;8.53;3.57;;;17.10;99.90;;;;;;5047539;28;20490;-57
2023/05/01 09:02:04;;;;;;;3.37;2.67;;;17.50;99.90;;;;;;5053509;28;20508;-56
2023/05/01 09:04:34;;;;;;;5.63;3.43;;;17.20;99.90;;;;;;5053339;28;20464;-57
2023/05/01 09:07:01;;;;;;;5.67;3.30;;;17.70;99.90;;;;;;5069249;22;20490;-50
2023/05/01 09:09:28;;;;;;;7.67;3.63;;;16.70;99.90;;;;;;5085599;28;20505;-50
2023/05/01 09:11:57;;;;;;;11.03;2.93;;;17.20;99.90;;;;;;5091784;28;20463;-51
2023/05/01 09:14:25;;;;;;;10.80;3.10;;;17.60;99.90;;;;;;5067211;28;20551;-51
2023/05/01 09:16:51;;;;;;;6.47;3.17;;;17.70;99.90;;;;;;5069731;28;20526;-49
2023/05/01 09:19:18;;;;;;;5.10;3.33;;;18.20;90.10;;;;;;5070587;28;20952;-53
2023/05/01 09:21:45;;;;;;;15.40;3.03;;;18.00;99.90;;;;;;5067035;28;20484;-55
2023/05/01 09:24:11;;;;;;;5.53;2.70;;;18.90;90.80;;;;;;5066582;28;20502;-50
2023/05/01 09:26:40;;;;;;;3.97;3.10;;;19.70;90.40;;;;;;5068990;28;21024;-49
2023/05/01 09:29:09;;;;;;;5.40;2.67;;;19.70;81.40;;;;;;5068089;28;20499;-50
2023/05/01 09:31:37;;;;;;;7.97;3.27;;;19.70;79.80;;;;;;5069586;28;20882;-56
2023/05/01 09:34:06;;;;;;;6.53;3.93;;;19.50;22.00;;;;;;5071139;28;20949;-55
2023/05/01 09:36:33;;;;;;;11.80;4.13;;;19.50;23.20;;;;;;5073035;28;20456;-56
2023/05/01 09:39:01;;;;;;;3.70;2.70;;;19.60;23.00;;;;;;5071256;28;20493;-56
2023/05/01 09:41:30;;;;;;;7.43;3.13;;;19.50;23.70;;;;;;5075752;28;20560;-55
2023/05/01 09:43:57;;;;;;;6.07;2.73;;;18.80;23.90;;;;;;5070788;28;20463;-56
2023/05/01 09:46:25;;;;;;;15.90;3.60;;;19.00;23.20;;;;;;5064542;28;20484;-56
2023/05/01 09:48:57;;;;;;;7.37;3.07;;;18.60;20.80;;;;;;5070135;28;20442;-55
2023/05/01 09:51:26;;;;;;;4.57;2.57;;;18.00;21.80;;;;;;5066846;28;20816;-55
2023/05/01 09:53:54;;;;;;;5.37;2.70;;;17.60;73.00;;;;;;5071814;28;20834;-56
2023/05/01 09:56:22;;;;;;;4.57;3.03;;;18.30;87.20;;;;;;5072933;28;20568;-55
2023/05/01 09:58:51;;;;;;;24.03;3.73;;;19.40;21.60;;;;;;5069654;28;21025;-55
2023/05/01 10:01:18;;;;;;;4.70;3.30;;;19.90;23.80;;;;;;5067020;28;20461;-55
2023/05/01 10:03:45;;;;;;;6.53;2.73;;;19.60;22.50;;;;;;5068107;28;20457;-55
2023/05/01 10:06:27;;;;;;;12.07;3.73;;;19.20;22.40;;;;;;5071487;28;20568;-55
2023/05/01 10:08:54;;;;;;;5.67;4.20;;;19.50;20.00;;;;;;5069739;28;20880;-56
2023/05/01 10:11:21;;;;;;;6.53;3.37;;;19.30;23.60;;;;;;5065517;28;20520;-56
2023/05/01 10:14:06;;;;;;;6.80;2.90;;;18.70;21.30;;;;;;5070723;28;20476;-50
2023/05/01 10:16:35;;;;;;;9.30;3.00;;;19.70;21.30;;;;;;5070927;28;20916;-50
2023/05/01 10:19:03;;;;;;;10.13;3.23;;;19.80;21.70;;;;;;5069207;28;20485;-50
2023/05/01 10:21:32;;;;;;;3.73;2.37;;;19.70;21.00;;;;;;5069799;28;20501;-49
2023/05/01 10:24:00;;;;;;;5.00;3.13;;;20.30;23.00;;;;;;5069256;28;20462;-50
2023/05/01 10:26:27;;;;;;;4.83;2.43;;;20.10;25.20;;;;;;5051928;28;20531;-50
2023/05/01 10:28:57;;;;;;;6.27;3.37;;;20.20;75.40;;;;;;5082200;28;20457;-50
2023/05/01 10:31:24;;;;;;;7.47;3.17;;;20.50;23.70;;;;;;5079064;28;20456;-50
2023/05/01 10:33:51;;;;;;;6.60;3.00;;;20.80;23.40;;;;;;5070870;28;20461;-50
2023/05/01 10:36:22;;;;;;;4.53;2.83;;;20.80;24.00;;;;;;5058574;28;20485;-50
2023/05/01 10:38:51;;;;;;;8.00;3.43;;;21.10;24.90;;;;;;5069088;28;20542;-50
2023/05/01 10:41:37;;;;;;;5.50;3.30;;;20.50;23.50;;;;;;5069721;28;20993;-49
2023/05/01 10:44:21;;;;;;;6.90;2.80;;;20.40;24.20;;;;;;5067348;28;20465;-50
2023/05/01 10:46:48;;;;;;;8.93;3.50;;;21.50;25.30;;;;;;5065322;28;20563;-50
2023/05/01 10:49:15;;;;;;;9.90;3.47;;;21.70;27.80;;;;;;5070615;28;20809;-50
2023/05/01 10:52:02;;;;;;;5.17;3.23;;;21.30;29.30;;;;;;5071389;28;20456;-49
2023/05/01 10:54:29;;;;;;;5.10;2.70;;;20.60;26.20;;;;;;5063536;28;20843;-55
2023/05/01 10:56:58;;;;;;;5.20;2.90;;;20.70;71.80;;;;;;5075426;28;20480;-55
2023/05/01 10:59:27;;;;;;;8.23;2.90;;;20.80;24.00;;;;;;5071488;28;20586;-55
2023/05/01 11:01:54;;;;;;;4.13;2.90;;;20.80;20.10;;;;;;5074007;28;20472;-56
2023/05/01 11:04:49;;;;;;;11.77;3.77;;;20.70;25.10;;;;;;5084644;28;20521;-55
2023/05/01 11:07:20;;;;;;;12.50;3.10;;;19.70;20.30;;;;;;5087311;28;20469;-55
2023/05/01 11:09:48;;;;;;;9.00;3.63;;;20.70;25.40;;;;;;5084568;28;20465;-55
2023/05/01 11:12:16;;;;;;;7.77;3.60;;;21.20;28.00;;;;;;5066040;28;20584;-51
2023/05/01 11:15:04;;;;;;;5.83;3.17;;;21.70;27.50;;;;;;5075841;28;20468;-50
2023/05/01 11:17:48;;;;;;;4.47;3.07;;;21.30;27.80;;;;;;5081160;28;20460;-51
2023/05/01 11:20:46;;;;;;;6.20;3.47;;;21.50;27.30;;;;;;5058793;28;20512;-50
2023/05/01 11:23:17;;;;;;;5.03;3.90;;;20.70;27.90;;;;;;5077268;28;20441;-50
2023/05/01 11:25:46;;;;;;;5.10;3.33;;;19.70;25.70;;;;;;5081954;28;20441;-49
2023/05/01 11:28:19;;;;;;;3.50;2.60;;;19.70;22.30;;;;;;5075592;28;20511;-50
2023/05/01 11:30:48;;;;;;;7.93;3.17;;;19.40;22.20;;;;;;5074402;28;20462;-50
2023/05/01 11:33:22;;;;;;;5.77;3.87;;;19.00;22.00;;;;;;5075181;28;20441;-50
2023/05/01 11:36:00;;;;;;;8.73;3.57;;;18.50;20.50;;;;;;5074884;28;20982;-51
2023/05/01 11:38:26;;;;;;;5.23;3.30;;;18.20;71.90;;;;;;5071798;28;20502;-50
2023/05/01 11:41:00;;;;;;;8.93;3.73;;;18.60;20.50;;;;;;5073761;28;20540;-49
2023/05/01 11:43:27;;;;;;;6.83;3.60;;;18.40;20.70;;;;;;5074976;28;20445;-50
2023/05/01 11:46:00;;;;;;;5.67;3.67;;;18.80;82.40;;;;;;5074780;28;20469;-49
2023/05/01 11:48:28;;;;;;;6.73;3.90;;;19.10;22.40;;;;;;5067764;28;20464;-49
2023/05/01 11:50:55;;;;;;;5.33;4.10;;;19.40;22.00;;;;;;5067258;28;20453;-49
2023/05/01 11:53:21;;;;;;;9.37;3.23;;;19.30;72.90;;;;;;5066795;28;20453;-48
2023/05/01 11:55:48;;;;;;;6.17;3.10;;;20.10;22.50;;;;;;5067224;28;20485;-50
2023/05/01 11:58:15;;;;;;;6.43;3.60;;;20.30;23.80;;;;;;5070311;28;20480;-50
2023/05/01 12:00:43;;;;;;;11.20;4.10;;;20.00;22.80;;;;;;5070497;28;21061;-49
2023/05/01 12:03:13;;;;;;;6.07;3.30;;;20.10;25.30;;;;;;5072726;28;21042;-49
2023/05/01 12:05:41;;;;;;;3.23;2.90;;;19.80;23.80;;;;;;5074112;28;20868;-50
2023/05/01 12:08:11;;;;;;;4.33;3.40;;;20.30;25.00;;;;;;5074910;28;20541;-49
2023/05/01 12:10:39;;;;;;;6.97;3.90;;;20.50;25.60;;;;;;5077177;28;20441;-49
2023/05/01 12:13:07;;;;;;;4.60;2.83;;;20.10;24.40;;;;;;5076023;28;20463;-51
2023/05/01 12:15:36;;;;;;;4.23;3.07;;;20.00;24.10;;;;;;5080479;28;20469;-50
2023/05/01 12:18:03;;;;;;;4.00;3.57;;;20.20;22.50;;;;;;5073043;28;20469;-49
2023/05/01 12:20:39;;;;;;;3.40;3.10;;;20.70;24.90;;;;;;5075473;28;20825;-50
2023/05/01 12:23:07;;;;;;;13.40;4.07;;;20.70;26.20;;;;;;5058826;28;20465;-52
2023/05/01 12:25:34;;;;;;;7.17;3.83;;;20.10;28.30;;;;;;5072417;28;20467;-50
2023/05/01 12:28:03;;;;;;;6.73;3.63;;;20.10;26.50;;;;;;5074614;28;21137;-49
2023/05/01 12:30:30;;;;;;;20.13;4.00;;;20.80;25.80;;;;;;5073366;28;20449;-49
2023/05/01 12:32:57;;;;;;;6.23;3.33;;;20.50;26.60;;;;;;5073758;28;20465;-49
2023/05/01 12:35:29;;;;;;;4.00;3.23;;;20.10;27.70;;;;;;5066087;28;20456;-49
2023/05/01 12:37:58;;;;;;;5.60;3.53;;;19.90;26.70;;;;;;5070316;28;20472;-49
2023/05/01 12:40:25;;;;;;;9.30;3.47;;;20.40;25.90;;;;;;5064962;28;20982;-49
2023/05/01 12:42:56;;;;;;;7.30;6.10;;;20.40;27.00;;;;;;5068366;28;20531;-49
2023/05/01 12:45:23;;;;;;;7.50;4.10;;;20.90;27.20;;;;;;5061369;28;20462;-49
2023/05/01 12:47:50;;;;;;;9.90;4.00;;;21.10;27.80;;;;;;5071288;28;20481;-55
2023/05/01 12:50:18;;;;;;;8.07;4.50;;;21.20;27.90;;;;;;5074469;28;20816;-55
2023/05/01 12:52:44;;;;;;;7.90;3.90;;;21.20;25.80;;;;;;5070268;28;20457;-53
2023/05/01 12:55:12;;;;;;;6.23;3.70;;;21.40;25.80;;;;;;5074091;28;20445;-53